createdAt,value
2023-02-11T13:33:36.994Z,1034.4
2023-02-11T13:34:39.056Z,1034.4
2023-02-11T13:35:40.611Z,1034.4
2023-02-11T13:36:42.490Z,1034.3
2023-02-11T13:37:44.438Z,1034.3
2023-02-11T13:38:46.322Z,1034.3
2023-02-11T13:39:48.143Z,1034.3
2023-02-11T13:40:50.734Z,1034.2
2023-02-11T13:42:02.241Z,1034.2
2023-02-11T13:43:04.497Z,1034.2
2023-02-11T13:44:06.680Z,1034.2
2023-02-11T13:45:08.580Z,1034.2
2023-02-11T13:46:10.790Z,1034.2
2023-02-11T13:47:12.280Z,1034.2
2023-02-11T13:48:14.273Z,1034.2
2023-02-11T13:49:16.133Z,1034.1
2023-02-11T13:50:17.939Z,1034.1
2023-02-11T13:51:20.297Z,1034.1
2023-02-11T13:52:21.809Z,1034.1
2023-02-11T13:53:23.829Z,1034.1
2023-02-11T13:54:25.521Z,1034.1
2023-02-11T13:55:27.516Z,1034
2023-02-11T13:56:29.518Z,1034.1
2023-02-11T13:57:31.367Z,1034.1
2023-02-11T13:58:33.481Z,1034.1
2023-02-11T13:59:35.179Z,1034.1
2023-02-11T14:00:37.137Z,1034.1
2023-02-11T14:01:39.056Z,1034
2023-02-11T14:02:41.135Z,1034
2023-02-11T14:03:42.737Z,1034
2023-02-11T14:04:49.004Z,1034
2023-02-11T14:05:56.926Z,1034
2023-02-11T14:06:58.899Z,1033.9
2023-02-11T14:08:00.705Z,1033.9
2023-02-11T14:09:02.543Z,1033.9
2023-02-11T14:10:04.417Z,1033.9
2023-02-11T14:11:06.450Z,1033.9
2023-02-11T14:12:08.356Z,1033.9
2023-02-11T14:13:10.631Z,1033.9
2023-02-11T14:14:12.031Z,1033.9
2023-02-11T14:15:13.949Z,1033.9
2023-02-11T14:16:35.566Z,1033.8
2023-02-11T14:17:48.732Z,1033.8
2023-02-11T14:18:50.630Z,1033.8
2023-02-11T14:19:52.660Z,1033.8
2023-02-11T14:20:54.320Z,1033.8
2023-02-11T14:21:56.311Z,1033.8
2023-02-11T14:22:58.134Z,1033.8
2023-02-11T14:23:59.990Z,1033.7
2023-02-11T14:25:01.994Z,1033.7
2023-02-11T14:26:03.771Z,1033.8
2023-02-11T14:27:05.665Z,1033.8
2023-02-11T14:28:07.724Z,1033.8
2023-02-11T14:29:09.402Z,1033.7
2023-02-11T14:30:11.806Z,1033.7
2023-02-11T14:31:13.548Z,1033.7
2023-02-11T14:32:15.344Z,1033.7
2023-02-11T14:33:17.009Z,1033.7
2023-02-11T14:34:19.471Z,1033.7
2023-02-11T14:35:21.076Z,1033.7
2023-02-11T14:36:22.878Z,1033.7
2023-02-11T14:37:24.710Z,1033.7
2023-02-11T14:38:26.871Z,1033.7
2023-02-11T14:39:28.690Z,1033.7
2023-02-11T14:40:30.650Z,1033.7
2023-02-11T14:41:32.482Z,1033.7
2023-02-11T14:42:34.392Z,1033.7
2023-02-11T14:43:36.271Z,1033.7
2023-02-11T14:44:38.185Z,1033.7
2023-02-11T14:45:40.023Z,1033.7
2023-02-11T14:46:41.964Z,1033.7
2023-02-11T14:47:43.783Z,1033.7
2023-02-11T14:48:45.784Z,1033.7
2023-02-11T14:49:47.582Z,1033.7
2023-02-11T14:50:50.504Z,1033.6
2023-02-11T14:52:01.768Z,1033.6
2023-02-11T14:53:03.798Z,1033.6
2023-02-11T14:54:05.568Z,1033.6
2023-02-11T14:55:07.444Z,1033.6
2023-02-11T14:56:09.402Z,1033.6
2023-02-11T14:57:11.288Z,1033.6
2023-02-11T14:58:13.121Z,1033.6
2023-02-11T14:59:15.115Z,1033.6
2023-02-11T15:00:17.169Z,1033.6
2023-02-11T15:01:18.883Z,1033.6
2023-02-11T15:02:20.754Z,1033.5
2023-02-11T15:03:22.664Z,1033.5
2023-02-11T15:04:24.541Z,1033.5
2023-02-11T15:05:26.503Z,1033.5
2023-02-11T15:06:28.244Z,1033.5
2023-02-11T15:07:30.084Z,1033.5
2023-02-11T15:08:31.971Z,1033.5
2023-02-11T15:09:33.935Z,1033.5
2023-02-11T15:10:35.790Z,1033.5
2023-02-11T15:11:37.742Z,1033.5
2023-02-11T15:12:40.080Z,1033.5
2023-02-11T15:13:41.441Z,1033.5
2023-02-11T15:14:43.322Z,1033.5
2023-02-11T15:15:45.343Z,1033.5
2023-02-11T15:16:47.623Z,1033.4
2023-02-11T15:17:49.012Z,1033.4
2023-02-11T15:18:51.012Z,1033.4
2023-02-11T15:19:52.810Z,1033.4
2023-02-11T15:20:54.992Z,1033.4
2023-02-11T15:21:57.598Z,1033.4
2023-02-11T15:23:09.832Z,1033.4
2023-02-11T15:24:21.020Z,1033.3
2023-02-11T15:25:22.913Z,1033.3
2023-02-11T15:26:24.853Z,1033.3
2023-02-11T15:27:26.740Z,1033.3
2023-02-11T15:28:28.726Z,1033.3
2023-02-11T15:29:31.024Z,1033.4
2023-02-11T15:30:32.554Z,1033.4
2023-02-11T15:31:35.624Z,1033.4
2023-02-11T15:32:46.514Z,1033.4
2023-02-11T15:33:48.873Z,1033.3
2023-02-11T15:34:50.352Z,1033.4
2023-02-11T15:35:52.178Z,1033.4
2023-02-11T15:36:54.194Z,1033.4
2023-02-11T15:37:56.640Z,1033.4
2023-02-11T15:38:57.852Z,1033.4
2023-02-11T15:39:59.793Z,1033.4
2023-02-11T15:41:01.757Z,1033.4
2023-02-11T15:42:04.012Z,1033.4
2023-02-11T15:43:05.473Z,1033.4
2023-02-11T15:44:07.432Z,1033.4
2023-02-11T15:45:09.232Z,1033.4
2023-02-11T15:46:11.252Z,1033.4
2023-02-11T15:47:13.092Z,1033.4
2023-02-11T15:48:14.951Z,1033.4
2023-02-11T15:49:17.012Z,1033.4
2023-02-11T15:50:18.852Z,1033.3
2023-02-11T15:51:20.837Z,1033.4
2023-02-11T15:52:22.970Z,1033.4
2023-02-11T15:53:24.571Z,1033.4
2023-02-11T15:54:26.263Z,1033.4
2023-02-11T15:55:28.187Z,1033.4
2023-02-11T15:56:30.152Z,1033.4
2023-02-11T15:57:32.044Z,1033.4
2023-02-11T15:58:33.932Z,1033.4
2023-02-11T15:59:35.995Z,1033.4
2023-02-11T16:00:37.805Z,1033.4
2023-02-11T16:01:39.701Z,1033.4
2023-02-11T16:02:41.467Z,1033.4
2023-02-11T16:03:43.455Z,1033.4
2023-02-11T16:04:45.240Z,1033.4
2023-02-11T16:05:47.204Z,1033.4
2023-02-11T16:06:49.343Z,1033.5
2023-02-11T16:07:55.890Z,1033.5
2023-02-11T16:09:03.320Z,1033.5
2023-02-11T16:10:05.008Z,1033.5
2023-02-11T16:11:06.961Z,1033.5
2023-02-11T16:12:08.786Z,1033.4
2023-02-11T16:13:10.662Z,1033.4
2023-02-11T16:14:12.651Z,1033.4
2023-02-11T16:15:14.523Z,1033.4
2023-02-11T16:16:16.432Z,1033.4
2023-02-11T16:17:18.342Z,1033.4
2023-02-11T16:18:21.022Z,1033.4
2023-02-11T16:19:42.669Z,1033.5
2023-02-11T16:20:44.503Z,1033.5
2023-02-11T16:21:46.621Z,1033.5
2023-02-11T16:22:48.421Z,1033.5
2023-02-11T16:23:50.195Z,1033.4
2023-02-11T16:24:52.346Z,1033.4
2023-02-11T16:25:54.200Z,1033.4
2023-02-11T16:26:56.149Z,1033.4
2023-02-11T16:27:58.098Z,1033.4
2023-02-11T16:28:59.871Z,1033.4
2023-02-11T16:30:02.016Z,1033.5
2023-02-11T16:31:03.934Z,1033.4
2023-02-11T16:32:05.820Z,1033.4
2023-02-11T16:33:17.792Z,1033.4
2023-02-11T16:34:19.834Z,1033.4
2023-02-11T16:35:21.612Z,1033.4
2023-02-11T16:36:25.639Z,1033.4
2023-02-11T16:37:35.658Z,1033.4
2023-02-11T16:38:37.630Z,1033.4
2023-02-11T16:39:39.450Z,1033.4
2023-02-11T16:40:41.423Z,1033.4
2023-02-11T16:41:43.884Z,1033.4
2023-02-11T16:42:45.250Z,1033.4
2023-02-11T16:43:47.131Z,1033.4
2023-02-11T16:44:49.053Z,1033.4
2023-02-11T16:45:52.263Z,1033.4
2023-02-11T16:47:03.394Z,1033.4
2023-02-11T16:48:05.037Z,1033.4
2023-02-11T16:49:07.000Z,1033.4
2023-02-11T16:50:09.240Z,1033.4
2023-02-11T16:51:10.730Z,1033.4
2023-02-11T16:52:12.591Z,1033.4
2023-02-11T16:53:14.587Z,1033.4
2023-02-11T16:54:16.872Z,1033.5
2023-02-11T16:55:18.235Z,1033.5
2023-02-11T16:56:20.236Z,1033.5
2023-02-11T16:57:22.116Z,1033.4
2023-02-11T16:58:24.664Z,1033.5
2023-02-11T16:59:26.947Z,1033.4
2023-02-11T17:00:29.118Z,1033.4
2023-02-11T17:01:31.129Z,1033.5
2023-02-11T17:02:32.767Z,1033.4
2023-02-11T17:03:34.643Z,1033.5
2023-02-11T17:04:36.719Z,1033.5
2023-02-11T17:05:58.467Z,1033.5
2023-02-11T17:07:00.947Z,1033.4
2023-02-11T17:08:02.968Z,1033.4
2023-02-11T17:09:04.787Z,1033.4
2023-02-11T17:10:06.879Z,1033.4
2023-02-11T17:11:08.638Z,1033.5
2023-02-11T17:12:10.781Z,1033.5
2023-02-11T17:13:12.485Z,1033.5
2023-02-11T17:14:14.338Z,1033.5
2023-02-11T17:15:16.258Z,1033.5
2023-02-11T17:16:18.289Z,1033.5
2023-02-11T17:17:20.089Z,1033.5
2023-02-11T17:18:21.907Z,1033.5
2023-02-11T17:19:23.889Z,1033.5
2023-02-11T17:20:25.617Z,1033.5
2023-02-11T17:21:30.347Z,1033.5
2023-02-11T17:22:39.739Z,1033.5
2023-02-11T17:23:41.642Z,1033.5
2023-02-11T17:24:43.496Z,1033.5
2023-02-11T17:25:47.606Z,1033.5
2023-02-11T17:26:57.605Z,1033.5
2023-02-11T17:27:59.643Z,1033.5
2023-02-11T17:29:01.405Z,1033.5
2023-02-11T17:30:03.384Z,1033.5
2023-02-11T17:31:05.271Z,1033.5
2023-02-11T17:32:07.259Z,1033.5
2023-02-11T17:33:09.590Z,1033.5
2023-02-11T17:34:10.867Z,1033.5
2023-02-11T17:35:12.831Z,1033.5
2023-02-11T17:36:14.652Z,1033.5
2023-02-11T17:37:17.046Z,1033.5
2023-02-11T17:38:18.453Z,1033.5
2023-02-11T17:39:20.323Z,1033.6
2023-02-11T17:40:22.188Z,1033.6
2023-02-11T17:41:24.551Z,1033.6
2023-02-11T17:42:26.044Z,1033.6
2023-02-11T17:43:27.968Z,1033.6
2023-02-11T17:44:29.865Z,1033.6
2023-02-11T17:45:32.003Z,1033.6
2023-02-11T17:46:33.483Z,1033.6
2023-02-11T17:47:35.623Z,1033.6
2023-02-11T17:48:37.370Z,1033.6
2023-02-11T17:49:39.179Z,1033.6
2023-02-11T17:50:41.025Z,1033.6
2023-02-11T17:51:43.053Z,1033.6
2023-02-11T17:52:44.837Z,1033.6
2023-02-11T17:53:46.705Z,1033.6
2023-02-11T17:54:48.604Z,1033.6
2023-02-11T17:55:51.350Z,1033.6
2023-02-11T17:57:02.802Z,1033.6
2023-02-11T17:58:04.585Z,1033.6
2023-02-11T17:59:06.535Z,1033.6
2023-02-11T18:00:08.455Z,1033.6
2023-02-11T18:01:10.353Z,1033.6
2023-02-11T18:02:12.090Z,1033.6
2023-02-11T18:03:14.156Z,1033.6
2023-02-11T18:04:16.104Z,1033.6
2023-02-11T18:05:18.136Z,1033.6
2023-02-11T18:06:19.761Z,1033.6
2023-02-11T18:07:21.656Z,1033.6
2023-02-11T18:08:23.541Z,1033.6
2023-02-11T18:09:25.480Z,1033.6
2023-02-11T18:10:27.308Z,1033.6
2023-02-11T18:11:29.229Z,1033.6
2023-02-11T18:12:31.224Z,1033.6
2023-02-11T18:13:32.987Z,1033.6
2023-02-11T18:14:34.975Z,1033.6
2023-02-11T18:15:36.828Z,1033.6
2023-02-11T18:16:38.830Z,1033.6
2023-02-11T18:17:40.541Z,1033.6
2023-02-11T18:18:42.555Z,1033.6
2023-02-11T18:19:44.325Z,1033.6
2023-02-11T18:20:46.402Z,1033.6
2023-02-11T18:21:48.143Z,1033.6
2023-02-11T18:22:50.067Z,1033.6
2023-02-11T18:23:52.416Z,1033.6
2023-02-11T18:24:53.804Z,1033.7
2023-02-11T18:25:55.834Z,1033.7
2023-02-11T18:26:57.567Z,1033.7
2023-02-11T18:28:00.119Z,1033.7
2023-02-11T18:29:01.335Z,1033.7
2023-02-11T18:30:03.292Z,1033.7
2023-02-11T18:31:05.345Z,1033.8
2023-02-11T18:32:07.614Z,1033.8
2023-02-11T18:33:09.167Z,1033.8
2023-02-11T18:34:10.891Z,1033.8
2023-02-11T18:35:15.169Z,1033.8
2023-02-11T18:36:25.489Z,1033.8
2023-02-11T18:37:27.024Z,1033.8
2023-02-11T18:38:28.789Z,1033.8
2023-02-11T18:39:30.730Z,1033.8
2023-02-11T18:40:32.718Z,1033.8
2023-02-11T18:41:34.491Z,1033.8
2023-02-11T18:42:36.439Z,1033.8
2023-02-11T18:43:38.260Z,1033.8
2023-02-11T18:44:40.201Z,1033.8
2023-02-11T18:45:42.325Z,1033.8
2023-02-11T18:46:43.960Z,1033.8
2023-02-11T18:47:45.882Z,1033.8
2023-02-11T18:48:47.814Z,1033.8
2023-02-11T18:49:49.602Z,1033.8
2023-02-11T18:50:51.470Z,1033.8
2023-02-11T18:51:53.361Z,1033.9
2023-02-11T18:52:55.244Z,1033.9
2023-02-11T18:53:57.120Z,1033.9
2023-02-11T18:54:59.080Z,1033.9
2023-02-11T18:56:00.925Z,1033.9
2023-02-11T18:57:02.803Z,1033.8
2023-02-11T18:58:04.755Z,1033.8
2023-02-11T18:59:06.736Z,1033.8
2023-02-11T19:00:08.416Z,1033.8
2023-02-11T19:01:10.558Z,1033.8
2023-02-11T19:02:12.220Z,1033.8
2023-02-11T19:03:14.035Z,1033.8
2023-02-11T19:04:16.108Z,1033.8
2023-02-11T19:05:17.875Z,1033.8
2023-02-11T19:06:19.715Z,1033.8
2023-02-11T19:07:21.591Z,1033.8
2023-02-11T19:08:23.490Z,1033.8
2023-02-11T19:09:25.312Z,1033.8
2023-02-11T19:10:27.213Z,1033.8
2023-02-11T19:11:29.221Z,1033.8
2023-02-11T19:12:30.942Z,1033.8
2023-02-11T19:13:32.845Z,1033.8
2023-02-11T19:14:35.231Z,1033.8
2023-02-11T19:15:36.602Z,1033.8
2023-02-11T19:16:38.627Z,1033.8
2023-02-11T19:17:40.482Z,1033.8
2023-02-11T19:18:42.788Z,1033.8
2023-02-11T19:19:44.148Z,1033.8
2023-02-11T19:20:46.151Z,1033.8
2023-02-11T19:21:47.908Z,1033.8
2023-02-11T19:22:50.168Z,1033.8
2023-02-11T19:23:51.830Z,1033.8
2023-02-11T19:24:53.583Z,1033.8
2023-02-11T19:25:55.464Z,1033.8
2023-02-11T19:26:57.586Z,1033.8
2023-02-11T19:27:59.411Z,1033.8
2023-02-11T19:29:01.162Z,1033.8
2023-02-11T19:30:03.043Z,1033.8
2023-02-11T19:31:05.175Z,1033.8
2023-02-11T19:32:07.042Z,1033.9
2023-02-11T19:33:10.481Z,1033.9
2023-02-11T19:34:20.967Z,1033.9
2023-02-11T19:35:22.787Z,1033.9
2023-02-11T19:36:24.682Z,1033.9
2023-02-11T19:37:26.683Z,1033.9
2023-02-11T19:38:28.466Z,1033.9
2023-02-11T19:39:30.308Z,1033.9
2023-02-11T19:40:32.394Z,1033.9
2023-02-11T19:41:34.221Z,1033.9
2023-02-11T19:42:35.943Z,1033.9
2023-02-11T19:43:37.944Z,1033.9
2023-02-11T19:44:39.772Z,1033.9
2023-02-11T19:45:41.654Z,1033.9
2023-02-11T19:46:43.841Z,1033.9
2023-02-11T19:47:45.660Z,1033.9
2023-02-11T19:48:47.313Z,1033.9
2023-02-11T19:49:49.176Z,1033.9
2023-02-11T19:50:51.149Z,1033.8
2023-02-11T19:51:52.948Z,1033.8
2023-02-11T19:52:54.832Z,1033.8
2023-02-11T19:53:56.889Z,1033.8
2023-02-11T19:54:58.640Z,1033.8
2023-02-11T19:56:00.533Z,1033.8
2023-02-11T19:57:02.412Z,1033.8
2023-02-11T19:58:04.252Z,1033.8
2023-02-11T19:59:06.179Z,1033.8
2023-02-11T20:00:08.055Z,1033.8
2023-02-11T20:01:10.054Z,1033.8
2023-02-11T20:02:11.934Z,1033.8
2023-02-11T20:03:13.748Z,1033.8
2023-02-11T20:04:15.618Z,1033.8
2023-02-11T20:05:17.519Z,1033.8
2023-02-11T20:06:19.451Z,1033.8
2023-02-11T20:07:21.294Z,1033.8
2023-02-11T20:08:23.231Z,1033.8
2023-02-11T20:09:25.591Z,1033.8
2023-02-11T20:10:26.951Z,1033.8
2023-02-11T20:11:28.997Z,1033.8
2023-02-11T20:12:30.770Z,1033.8
2023-02-11T20:13:33.070Z,1033.8
2023-02-11T20:14:34.490Z,1033.8
2023-02-11T20:15:36.432Z,1033.8
2023-02-11T20:16:49.903Z,1033.8
2023-02-11T20:18:00.763Z,1033.8
2023-02-11T20:19:02.728Z,1033.8
2023-02-11T20:20:04.634Z,1033.8
2023-02-11T20:21:06.431Z,1033.8
2023-02-11T20:22:08.828Z,1033.8
2023-02-11T20:23:10.180Z,1033.8
2023-02-11T20:24:12.157Z,1033.8
2023-02-11T20:25:13.944Z,1033.8
2023-02-11T20:26:16.323Z,1033.8
2023-02-11T20:27:20.630Z,1033.8
2023-02-11T20:28:30.056Z,1033.8
2023-02-11T20:29:31.852Z,1033.7
2023-02-11T20:30:34.168Z,1033.7
2023-02-11T20:31:36.160Z,1033.7
2023-02-11T20:32:37.455Z,1033.7
2023-02-11T20:33:39.439Z,1033.7
2023-02-11T20:34:41.861Z,1033.7
2023-02-11T20:35:43.321Z,1033.7
2023-02-11T20:36:45.063Z,1033.7
2023-02-11T20:37:47.043Z,1033.7
2023-02-11T20:38:49.022Z,1033.7
2023-02-11T20:39:50.740Z,1033.7
2023-02-11T20:40:52.741Z,1033.7
2023-02-11T20:41:54.533Z,1033.7
2023-02-11T20:42:56.404Z,1033.7
2023-02-11T20:43:58.460Z,1033.7
2023-02-11T20:45:00.183Z,1033.7
2023-02-11T20:46:02.177Z,1033.7
2023-02-11T20:47:04.071Z,1033.7
2023-02-11T20:48:05.841Z,1033.7
2023-02-11T20:49:07.802Z,1033.7
2023-02-11T20:50:09.822Z,1033.7
2023-02-11T20:51:11.610Z,1033.7
2023-02-11T20:52:13.671Z,1033.7
2023-02-11T20:53:15.375Z,1033.7
2023-02-11T20:54:17.350Z,1033.8
2023-02-11T20:55:19.150Z,1033.8
2023-02-11T20:56:21.070Z,1033.8
2023-02-11T20:57:22.987Z,1033.8
2023-02-11T20:58:24.811Z,1033.8
2023-02-11T20:59:26.750Z,1033.8
2023-02-11T21:00:28.711Z,1033.8
2023-02-11T21:01:30.599Z,1033.8
2023-02-11T21:02:32.434Z,1033.8
2023-02-11T21:03:34.455Z,1033.8
2023-02-11T21:04:36.193Z,1033.8
2023-02-11T21:05:38.141Z,1033.8
2023-02-11T21:06:40.069Z,1033.8
2023-02-11T21:07:41.871Z,1033.8
2023-02-11T21:08:44.248Z,1033.8
2023-02-11T21:09:45.666Z,1033.8
2023-02-11T21:10:47.672Z,1033.8
2023-02-11T21:11:49.581Z,1033.8
2023-02-11T21:12:51.915Z,1033.8
2023-02-11T21:13:53.353Z,1033.8
2023-02-11T21:14:55.052Z,1033.8
2023-02-11T21:15:57.855Z,1033.8
2023-02-11T21:17:09.591Z,1033.8
2023-02-11T21:18:11.018Z,1033.8
2023-02-11T21:19:12.912Z,1033.8
2023-02-11T21:20:14.838Z,1033.8
2023-02-11T21:21:17.248Z,1033.8
2023-02-11T21:22:18.520Z,1033.8
2023-02-11T21:23:20.508Z,1033.8
2023-02-11T21:24:22.320Z,1033.8
2023-02-11T21:25:24.510Z,1033.8
2023-02-11T21:26:26.191Z,1033.8
2023-02-11T21:27:28.309Z,1033.8
2023-02-11T21:28:29.992Z,1033.7
2023-02-11T21:29:33.999Z,1033.7
2023-02-11T21:31:04.989Z,1033.8
2023-02-11T21:32:06.789Z,1033.7
2023-02-11T21:33:08.329Z,1033.8
2023-02-11T21:34:10.204Z,1033.8
2023-02-11T21:35:12.164Z,1033.8
2023-02-11T21:36:14.015Z,1033.7
2023-02-11T21:37:15.983Z,1033.7
2023-02-11T21:38:18.334Z,1033.7
2023-02-11T21:39:19.675Z,1033.7
2023-02-11T21:40:23.353Z,1033.7
2023-02-11T21:41:33.893Z,1033.7
2023-02-11T21:42:35.633Z,1033.7
2023-02-11T21:43:37.534Z,1033.7
2023-02-11T21:44:39.430Z,1033.7
2023-02-11T21:45:41.324Z,1033.7
2023-02-11T21:46:43.867Z,1033.7
2023-02-11T21:47:45.082Z,1033.7
2023-02-11T21:48:47.103Z,1033.7
2023-02-11T21:49:48.865Z,1033.7
2023-02-11T21:50:51.434Z,1033.7
2023-02-11T21:51:52.734Z,1033.7
2023-02-11T21:52:54.664Z,1033.7
2023-02-11T21:53:56.479Z,1033.7
2023-02-11T21:54:58.718Z,1033.7
2023-02-11T21:56:00.245Z,1033.7
2023-02-11T21:57:02.126Z,1033.7
2023-02-11T21:58:04.161Z,1033.7
2023-02-11T21:59:06.023Z,1033.7
2023-02-11T22:00:07.843Z,1033.7
2023-02-11T22:01:10.009Z,1033.7
2023-02-11T22:02:11.615Z,1033.6
2023-02-11T22:03:13.514Z,1033.6
2023-02-11T22:04:15.475Z,1033.6
2023-02-11T22:05:17.309Z,1033.6
2023-02-11T22:06:19.136Z,1033.6
2023-02-11T22:07:21.078Z,1033.6
2023-02-11T22:08:23.129Z,1033.6
2023-02-11T22:09:24.784Z,1033.6
2023-02-11T22:10:26.844Z,1033.6
2023-02-11T22:11:28.615Z,1033.7
2023-02-11T22:12:30.494Z,1033.7
2023-02-11T22:13:32.444Z,1033.6
2023-02-11T22:14:34.342Z,1033.6
2023-02-11T22:15:36.168Z,1033.6
2023-02-11T22:16:38.182Z,1033.6
2023-02-11T22:17:39.965Z,1033.6
2023-02-11T22:18:41.797Z,1033.6
2023-02-11T22:19:43.677Z,1033.6
2023-02-11T22:20:45.697Z,1033.6
2023-02-11T22:21:47.593Z,1033.6
2023-02-11T22:22:49.379Z,1033.6
2023-02-11T22:23:51.469Z,1033.7
2023-02-11T22:24:53.163Z,1033.6
2023-02-11T22:25:55.904Z,1033.7
2023-02-11T22:27:07.238Z,1033.7
2023-02-11T22:28:09.220Z,1033.6
2023-02-11T22:29:10.996Z,1033.6
2023-02-11T22:30:12.916Z,1033.6
2023-02-11T22:31:15.178Z,1033.6
2023-02-11T22:32:16.725Z,1033.6
2023-02-11T22:33:18.516Z,1033.6
2023-02-11T22:34:20.534Z,1033.6
2023-02-11T22:35:22.353Z,1033.6
2023-02-11T22:36:24.208Z,1033.6
2023-02-11T22:37:26.609Z,1033.6
2023-02-11T22:38:28.024Z,1033.6
2023-02-11T22:39:29.972Z,1033.6
2023-02-11T22:40:31.845Z,1033.6
2023-02-11T22:41:34.186Z,1033.6
2023-02-11T22:42:35.536Z,1033.6
2023-02-11T22:43:37.467Z,1033.6
2023-02-11T22:44:39.461Z,1033.6
2023-02-11T22:45:41.479Z,1033.6
2023-02-11T22:46:43.119Z,1033.6
2023-02-11T22:47:44.979Z,1033.6
2023-02-11T22:48:46.927Z,1033.6
2023-02-11T22:49:48.787Z,1033.6
2023-02-11T22:50:50.734Z,1033.6
2023-02-11T22:51:52.543Z,1033.6
2023-02-11T22:52:54.442Z,1033.6
2023-02-11T22:53:56.324Z,1033.6
2023-02-11T22:54:58.306Z,1033.6
2023-02-11T22:56:00.112Z,1033.6
2023-02-11T22:57:02.061Z,1033.6
2023-02-11T22:58:03.855Z,1033.6
2023-02-11T22:59:05.742Z,1033.6
2023-02-11T23:00:07.627Z,1033.6
2023-02-11T23:01:09.646Z,1033.6
2023-02-11T23:02:11.718Z,1033.6
2023-02-11T23:03:13.243Z,1033.6
2023-02-11T23:04:15.168Z,1033.6
2023-02-11T23:05:17.094Z,1033.6
2023-02-11T23:06:18.998Z,1033.6
2023-02-11T23:07:20.866Z,1033.6
2023-02-11T23:08:22.776Z,1033.6
2023-02-11T23:09:24.619Z,1033.6
2023-02-11T23:10:26.588Z,1033.6
2023-02-11T23:11:28.621Z,1033.6
2023-02-11T23:12:30.329Z,1033.6
2023-02-11T23:13:32.225Z,1033.6
2023-02-11T23:14:34.205Z,1033.6
2023-02-11T23:15:36.004Z,1033.6
2023-02-11T23:16:38.086Z,1033.6
2023-02-11T23:17:39.824Z,1033.6
2023-02-11T23:18:41.665Z,1033.6
2023-02-11T23:19:43.956Z,1033.6
2023-02-11T23:20:45.433Z,1033.6
2023-02-11T23:21:47.425Z,1033.6
2023-02-11T23:22:49.193Z,1033.6
2023-02-11T23:23:51.646Z,1033.6
2023-02-11T23:24:53.018Z,1033.6
2023-02-11T23:25:55.620Z,1033.6
2023-02-11T23:27:07.064Z,1033.6
2023-02-11T23:28:09.483Z,1033.6
2023-02-11T23:29:10.825Z,1033.6
2023-02-11T23:30:12.698Z,1033.6
2023-02-11T23:31:14.814Z,1033.6
2023-02-11T23:32:17.199Z,1033.6
2023-02-11T23:33:18.402Z,1033.6
2023-02-11T23:34:20.302Z,1033.7
2023-02-11T23:35:22.193Z,1033.6
2023-02-11T23:36:24.287Z,1033.7
2023-02-11T23:37:26.089Z,1033.7
2023-02-11T23:38:27.747Z,1033.7
2023-02-11T23:39:29.608Z,1033.7
2023-02-11T23:40:31.636Z,1033.7
2023-02-11T23:41:33.490Z,1033.7
2023-02-11T23:42:35.281Z,1033.7
2023-02-11T23:43:37.194Z,1033.6
2023-02-11T23:44:39.122Z,1033.6
2023-02-11T23:45:41.032Z,1033.6
2023-02-11T23:46:42.908Z,1033.6
2023-02-11T23:47:44.861Z,1033.6
2023-02-11T23:48:46.655Z,1033.6
2023-02-11T23:49:48.542Z,1033.6
2023-02-11T23:50:50.483Z,1033.7
2023-02-11T23:51:52.283Z,1033.7
2023-02-11T23:52:54.177Z,1033.6
2023-02-11T23:53:56.181Z,1033.6
2023-02-11T23:54:58.015Z,1033.6
2023-02-11T23:55:59.853Z,1033.6
2023-02-11T23:57:01.897Z,1033.6
2023-02-11T23:58:03.720Z,1033.6
2023-02-11T23:59:05.552Z,1033.6
